Tempe, AZ (85287)

6:16 AM MST on July 30, 2016 (GMT -0700)
APRSWXNET | | Change Station
Active Advisory: Areal Flood Warning Active Notice: Local Storm Report

Elev 1100 ft 33.42 °N, 111.91 °W | Updated 19 minutes ago

Mostly Cloudy
Mostly Cloudy
82 °F
Feels Like 84 °F
N
0
Wind Variable Wind from SW
Gusts 0.0 mph

Today
High -- | Low -- °F
--% Chance of Precip.
Yesterday
High -- | Low -- °F
Precip. -- in
Pressure 29.81 in
Visibility 10.0 miles
Clouds Few 7000 ft
Scattered Clouds 11000 ft
Mostly Cloudy 20000 ft
Heat Index 84 °F
Dew Point 66 °F
Humidity 59%
Rainfall in
Snow Depth Not available.
5:39 AM 7:28 PM
Waning Crescent, 13% visible
METAR KPHX 301251Z 22005KT 10SM FEW070 SCT110 BKN200 28/19 A2987 RMK AO2 SLP093 T02780194
Pressure 29.81 in
Visibility 10.0 miles
Clouds Few 7000 ft
Scattered Clouds 11000 ft
Mostly Cloudy 20000 ft
Heat Index 84 °F
Dew Point 66 °F
Humidity 59%
Rainfall in
Snow Depth Not available.
5:39 AM 7:28 PM
Waning Crescent, 13% visible
METAR KPHX 301251Z 22005KT 10SM FEW070 SCT110 BKN200 28/19 A2987 RMK AO2 SLP093 T02780194

10-Day Weather Forecast

Almanac

Astronomy

Jul. 30, 2016 Rise Set
Actual Time
Civil Twilight
Nautical Twilight
Astronomical Twilight
Moon
Length of Visible Light
Length of Day
Tomorrow will be .
, % of the Moon is Illuminated

Today's Extremes

State Highs State Lows

Community

WunderPhotos

Upload Photos

1,928,555 photos uploaded!

WunderBlog® & News

Nearby

Air Quality

  Air Quality AQ Index Pollutant
Not available.

Snow Depth

Station Depth Elevation

Earthquake Activity

City Distance Mag. Time & Date
Minimum magnitude displayed is 2.5.

Coastal Water Temperatures

Place Temperature

Stations

Nearby Weather Stations

Station Location Temp. Windchill Dew Point Humidity Wind Precip. Elev Updated Type
                   

Watches & Warnings

Areal Flood Warning
Issued: 4:02 AM MDT Jul. 30, 2016 – National Weather Service

The National Weather Service in Phoenix has issued a

* Flood Warning for small streams in...
south central Maricopa County in south central Arizona...

* until 700 am MST

* at 359 am MST... automated stream gauges continue to report very
high flows in washes that drain toward the Gila River. Waterman
wash was running just over bankfull at over 10 feet deep. Other
washes are also running. Unbridged crossings will be impassable in
many locations from Buckeye to south of Gila Bend. This affects
Highway 238 as well as local roads.

Precautionary/preparedness actions...

Turn around... don't drown when encountering flooded roads. Most flood
deaths occur in vehicles.

Be especially cautious at night when it is harder to recognize the
dangers of flooding.



Lat... Lon 3340 11238 3311 11223 3279 11230 3285 11273
      3299 11274 3309 11272 3332 11278


Aj